sensor_id;sensor_type;location;lat;lon;timestamp;temperature;humidity
44671;DHT22;48397;53.016;-2.260;2023-03-19T00:00:54;6.80;99.90
44671;DHT22;48397;53.016;-2.260;2023-03-19T00:03:22;6.80;99.90
44671;DHT22;48397;53.016;-2.260;2023-03-19T00:05:53;6.80;99.90
44671;DHT22;48397;53.016;-2.260;2023-03-19T00:08:21;6.80;99.90
44671;DHT22;48397;53.016;-2.260;2023-03-19T00:10:49;6.80;99.90
44671;DHT22;48397;53.016;-2.260;2023-03-19T00:13:18;6.60;99.90
44671;DHT22;48397;53.016;-2.260;2023-03-19T00:15:47;6.60;99.90
44671;DHT22;48397;53.016;-2.260;2023-03-19T00:18:16;6.60;99.90
44671;DHT22;48397;53.016;-2.260;2023-03-19T00:20:44;6.60;99.90
44671;DHT22;48397;53.016;-2.260;2023-03-19T00:25:40;6.50;99.90
44671;DHT22;48397;53.016;-2.260;2023-03-19T00:28:08;6.50;99.90
44671;DHT22;48397;53.016;-2.260;2023-03-19T00:30:36;6.40;99.90
44671;DHT22;48397;53.016;-2.260;2023-03-19T00:33:05;6.40;99.90
44671;DHT22;48397;53.016;-2.260;2023-03-19T00:35:33;6.30;99.90
44671;DHT22;48397;53.016;-2.260;2023-03-19T00:38:02;6.30;99.90
44671;DHT22;48397;53.016;-2.260;2023-03-19T00:40:31;6.20;99.90
44671;DHT22;48397;53.016;-2.260;2023-03-19T00:43:00;6.20;99.90
44671;DHT22;48397;53.016;-2.260;2023-03-19T00:45:28;6.10;99.90
44671;DHT22;48397;53.016;-2.260;2023-03-19T00:47:58;6.00;99.90
44671;DHT22;48397;53.016;-2.260;2023-03-19T00:50:26;6.00;99.90
44671;DHT22;48397;53.016;-2.260;2023-03-19T00:52:55;6.00;99.90
44671;DHT22;48397;53.016;-2.260;2023-03-19T00:55:26;6.00;99.90
44671;DHT22;48397;53.016;-2.260;2023-03-19T00:57:53;6.00;99.90
44671;DHT22;48397;53.016;-2.260;2023-03-19T01:00:22;5.90;99.90
44671;DHT22;48397;53.016;-2.260;2023-03-19T01:02:51;5.90;99.90
44671;DHT22;48397;53.016;-2.260;2023-03-19T01:05:20;5.90;99.90
44671;DHT22;48397;53.016;-2.260;2023-03-19T01:07:48;5.80;99.90
44671;DHT22;48397;53.016;-2.260;2023-03-19T01:10:20;5.80;99.90
44671;DHT22;48397;53.016;-2.260;2023-03-19T01:12:49;5.80;99.90
44671;DHT22;48397;53.016;-2.260;2023-03-19T01:15:18;5.90;99.90
44671;DHT22;48397;53.016;-2.260;2023-03-19T01:17:45;5.80;99.90
44671;DHT22;48397;53.016;-2.260;2023-03-19T01:22:45;5.80;99.90
44671;DHT22;48397;53.016;-2.260;2023-03-19T01:25:13;5.80;99.90
44671;DHT22;48397;53.016;-2.260;2023-03-19T01:27:50;5.90;99.90
44671;DHT22;48397;53.016;-2.260;2023-03-19T01:30:19;5.80;99.90
44671;DHT22;48397;53.016;-2.260;2023-03-19T01:33:06;5.80;99.90
44671;DHT22;48397;53.016;-2.260;2023-03-19T01:35:57;5.90;99.90
44671;DHT22;48397;53.016;-2.260;2023-03-19T01:38:31;5.90;99.90
44671;DHT22;48397;53.016;-2.260;2023-03-19T01:41:03;5.90;99.90
44671;DHT22;48397;53.016;-2.260;2023-03-19T01:43:32;6.00;99.90
44671;DHT22;48397;53.016;-2.260;2023-03-19T01:46:26;7.10;99.90
44671;DHT22;48397;53.016;-2.260;2023-03-19T01:49:13;6.00;99.90
44671;DHT22;48397;53.016;-2.260;2023-03-19T01:51:46;6.00;99.90
44671;DHT22;48397;53.016;-2.260;2023-03-19T01:54:44;6.00;99.90
44671;DHT22;48397;53.016;-2.260;2023-03-19T01:57:34;6.00;99.90
44671;DHT22;48397;53.016;-2.260;2023-03-19T02:00:33;6.00;99.90
44671;DHT22;48397;53.016;-2.260;2023-03-19T02:03:01;6.10;99.90
44671;DHT22;48397;53.016;-2.260;2023-03-19T02:05:54;6.00;99.90
44671;DHT22;48397;53.016;-2.260;2023-03-19T02:08:24;6.10;99.90
44671;DHT22;48397;53.016;-2.260;2023-03-19T02:10:54;6.20;99.90
44671;DHT22;48397;53.016;-2.260;2023-03-19T02:13:22;6.20;99.90
44671;DHT22;48397;53.016;-2.260;2023-03-19T02:15:51;6.30;99.90
44671;DHT22;48397;53.016;-2.260;2023-03-19T02:18:19;6.20;99.90
44671;DHT22;48397;53.016;-2.260;2023-03-19T02:21:06;6.30;99.90
44671;DHT22;48397;53.016;-2.260;2023-03-19T02:26:40;6.40;99.90
44671;DHT22;48397;53.016;-2.260;2023-03-19T02:29:10;6.40;99.90
44671;DHT22;48397;53.016;-2.260;2023-03-19T02:31:37;6.40;99.90
44671;DHT22;48397;53.016;-2.260;2023-03-19T02:36:50;6.40;99.90
44671;DHT22;48397;53.016;-2.260;2023-03-19T02:39:40;6.40;99.90
44671;DHT22;48397;53.016;-2.260;2023-03-19T02:42:11;6.40;99.90
44671;DHT22;48397;53.016;-2.260;2023-03-19T02:44:40;6.30;99.90
44671;DHT22;48397;53.016;-2.260;2023-03-19T02:47:09;6.20;99.90
44671;DHT22;48397;53.016;-2.260;2023-03-19T02:49:36;6.30;99.90
44671;DHT22;48397;53.016;-2.260;2023-03-19T02:52:04;6.30;99.90
44671;DHT22;48397;53.016;-2.260;2023-03-19T02:54:32;6.30;99.90
44671;DHT22;48397;53.016;-2.260;2023-03-19T02:59:28;6.30;99.90
44671;DHT22;48397;53.016;-2.260;2023-03-19T03:01:58;6.40;99.90
44671;DHT22;48397;53.016;-2.260;2023-03-19T03:04:26;6.40;99.90
44671;DHT22;48397;53.016;-2.260;2023-03-19T03:06:55;6.30;99.90
44671;DHT22;48397;53.016;-2.260;2023-03-19T03:11:52;6.30;99.90
44671;DHT22;48397;53.016;-2.260;2023-03-19T03:14:20;6.30;99.90
44671;DHT22;48397;53.016;-2.260;2023-03-19T03:16:48;6.40;99.90
44671;DHT22;48397;53.016;-2.260;2023-03-19T03:19:16;6.40;99.90
44671;DHT22;48397;53.016;-2.260;2023-03-19T03:24:12;6.50;99.90
44671;DHT22;48397;53.016;-2.260;2023-03-19T03:26:40;6.50;99.90
44671;DHT22;48397;53.016;-2.260;2023-03-19T03:29:09;6.50;99.90
44671;DHT22;48397;53.016;-2.260;2023-03-19T03:31:37;6.40;99.90
44671;DHT22;48397;53.016;-2.260;2023-03-19T03:34:14;6.40;99.90
44671;DHT22;48397;53.016;-2.260;2023-03-19T03:36:43;6.50;99.90
44671;DHT22;48397;53.016;-2.260;2023-03-19T03:39:12;6.40;99.90
44671;DHT22;48397;53.016;-2.260;2023-03-19T03:41:41;6.30;99.90
44671;DHT22;48397;53.016;-2.260;2023-03-19T03:44:09;6.20;99.90
44671;DHT22;48397;53.016;-2.260;2023-03-19T03:46:39;6.20;99.90
44671;DHT22;48397;53.016;-2.260;2023-03-19T03:49:07;6.20;99.90
44671;DHT22;48397;53.016;-2.260;2023-03-19T03:51:37;6.20;99.90
44671;DHT22;48397;53.016;-2.260;2023-03-19T03:54:05;6.20;99.90
44671;DHT22;48397;53.016;-2.260;2023-03-19T03:56:33;6.10;99.90
44671;DHT22;48397;53.016;-2.260;2023-03-19T04:01:31;6.20;99.90
44671;DHT22;48397;53.016;-2.260;2023-03-19T04:04:00;6.20;99.90
44671;DHT22;48397;53.016;-2.260;2023-03-19T04:06:27;6.10;99.90
44671;DHT22;48397;53.016;-2.260;2023-03-19T04:09:15;6.00;99.90
44671;DHT22;48397;53.016;-2.260;2023-03-19T04:14:12;6.00;99.90
44671;DHT22;48397;53.016;-2.260;2023-03-19T04:16:40;6.00;99.90
44671;DHT22;48397;53.016;-2.260;2023-03-19T04:19:09;6.00;99.90
44671;DHT22;48397;53.016;-2.260;2023-03-19T04:21:37;5.90;99.90
44671;DHT22;48397;53.016;-2.260;2023-03-19T04:24:06;6.00;99.90
44671;DHT22;48397;53.016;-2.260;2023-03-19T04:26:34;5.90;99.90
44671;DHT22;48397;53.016;-2.260;2023-03-19T04:29:02;5.90;99.90
44671;DHT22;48397;53.016;-2.260;2023-03-19T04:31:31;5.80;99.90
44671;DHT22;48397;53.016;-2.260;2023-03-19T04:33:58;5.80;99.90
44671;DHT22;48397;53.016;-2.260;2023-03-19T04:36:26;5.70;99.90
44671;DHT22;48397;53.016;-2.260;2023-03-19T04:38:55;5.70;99.90
44671;DHT22;48397;53.016;-2.260;2023-03-19T04:41:23;5.80;99.90
44671;DHT22;48397;53.016;-2.260;2023-03-19T04:44:10;5.70;99.90
44671;DHT22;48397;53.016;-2.260;2023-03-19T04:46:39;5.70;99.90
44671;DHT22;48397;53.016;-2.260;2023-03-19T04:49:08;5.70;99.90
44671;DHT22;48397;53.016;-2.260;2023-03-19T04:51:36;5.80;99.90
44671;DHT22;48397;53.016;-2.260;2023-03-19T04:54:04;5.70;99.90
44671;DHT22;48397;53.016;-2.260;2023-03-19T04:56:32;5.80;99.90
44671;DHT22;48397;53.016;-2.260;2023-03-19T04:59:01;5.90;99.90
44671;DHT22;48397;53.016;-2.260;2023-03-19T05:01:29;5.90;99.90
44671;DHT22;48397;53.016;-2.260;2023-03-19T05:04:04;5.90;99.90
44671;DHT22;48397;53.016;-2.260;2023-03-19T05:06:36;5.80;99.90
44671;DHT22;48397;53.016;-2.260;2023-03-19T05:09:06;8.90;99.90
44671;DHT22;48397;53.016;-2.260;2023-03-19T05:11:34;5.80;99.90
44671;DHT22;48397;53.016;-2.260;2023-03-19T05:14:05;5.80;99.90
44671;DHT22;48397;53.016;-2.260;2023-03-19T05:17:05;5.80;99.90
44671;DHT22;48397;53.016;-2.260;2023-03-19T05:19:47;5.80;99.90
44671;DHT22;48397;53.016;-2.260;2023-03-19T05:24:45;5.90;99.90
44671;DHT22;48397;53.016;-2.260;2023-03-19T05:27:12;5.90;99.90
44671;DHT22;48397;53.016;-2.260;2023-03-19T05:32:32;5.80;99.90
44671;DHT22;48397;53.016;-2.260;2023-03-19T05:35:03;5.80;99.90
44671;DHT22;48397;53.016;-2.260;2023-03-19T05:37:33;5.80;99.90
44671;DHT22;48397;53.016;-2.260;2023-03-19T05:40:01;5.90;99.90
44671;DHT22;48397;53.016;-2.260;2023-03-19T05:42:30;5.90;99.90
44671;DHT22;48397;53.016;-2.260;2023-03-19T05:44:59;5.90;99.90
44671;DHT22;48397;53.016;-2.260;2023-03-19T05:47:37;5.90;99.90
44671;DHT22;48397;53.016;-2.260;2023-03-19T05:50:06;5.80;99.90
44671;DHT22;48397;53.016;-2.260;2023-03-19T05:52:36;5.90;99.90
44671;DHT22;48397;53.016;-2.260;2023-03-19T05:55:05;5.90;99.90
44671;DHT22;48397;53.016;-2.260;2023-03-19T05:57:33;5.90;99.90
44671;DHT22;48397;53.016;-2.260;2023-03-19T06:00:07;5.90;99.90
44671;DHT22;48397;53.016;-2.260;2023-03-19T06:02:37;5.80;99.90
44671;DHT22;48397;53.016;-2.260;2023-03-19T06:05:31;5.80;99.90
44671;DHT22;48397;53.016;-2.260;2023-03-19T06:08:19;5.80;99.90
44671;DHT22;48397;53.016;-2.260;2023-03-19T06:11:09;5.80;99.90
44671;DHT22;48397;53.016;-2.260;2023-03-19T06:13:38;5.90;99.90
44671;DHT22;48397;53.016;-2.260;2023-03-19T06:16:22;5.80;99.90
44671;DHT22;48397;53.016;-2.260;2023-03-19T06:18:51;5.80;99.90
44671;DHT22;48397;53.016;-2.260;2023-03-19T06:21:25;5.80;99.90
44671;DHT22;48397;53.016;-2.260;2023-03-19T06:24:00;5.80;99.90
44671;DHT22;48397;53.016;-2.260;2023-03-19T06:26:35;5.90;99.90
44671;DHT22;48397;53.016;-2.260;2023-03-19T06:29:11;5.90;99.90
44671;DHT22;48397;53.016;-2.260;2023-03-19T06:31:40;5.90;99.90
44671;DHT22;48397;53.016;-2.260;2023-03-19T06:34:35;5.90;99.90
44671;DHT22;48397;53.016;-2.260;2023-03-19T06:37:13;5.90;99.90
44671;DHT22;48397;53.016;-2.260;2023-03-19T06:39:41;5.90;99.90
44671;DHT22;48397;53.016;-2.260;2023-03-19T06:42:12;5.80;99.90
44671;DHT22;48397;53.016;-2.260;2023-03-19T06:44:40;5.90;99.90
44671;DHT22;48397;53.016;-2.260;2023-03-19T06:47:11;2.50;99.90
44671;DHT22;48397;53.016;-2.260;2023-03-19T06:49:41;5.90;99.90
44671;DHT22;48397;53.016;-2.260;2023-03-19T06:52:09;5.90;99.90
44671;DHT22;48397;53.016;-2.260;2023-03-19T06:57:05;6.00;99.90
44671;DHT22;48397;53.016;-2.260;2023-03-19T06:59:33;6.10;99.90
44671;DHT22;48397;53.016;-2.260;2023-03-19T07:02:01;6.10;99.90
44671;DHT22;48397;53.016;-2.260;2023-03-19T07:04:30;6.10;99.90
44671;DHT22;48397;53.016;-2.260;2023-03-19T07:06:58;6.20;99.90
44671;DHT22;48397;53.016;-2.260;2023-03-19T07:09:30;6.20;99.90
44671;DHT22;48397;53.016;-2.260;2023-03-19T07:14:26;6.20;99.90
44671;DHT22;48397;53.016;-2.260;2023-03-19T07:16:55;6.30;99.90
44671;DHT22;48397;53.016;-2.260;2023-03-19T07:19:23;6.30;99.90
44671;DHT22;48397;53.016;-2.260;2023-03-19T07:21:51;6.30;99.90
44671;DHT22;48397;53.016;-2.260;2023-03-19T07:24:18;6.30;99.90
44671;DHT22;48397;53.016;-2.260;2023-03-19T07:29:13;6.40;99.90
44671;DHT22;48397;53.016;-2.260;2023-03-19T07:31:42;6.50;99.90
44671;DHT22;48397;53.016;-2.260;2023-03-19T07:34:12;9.50;99.90
44671;DHT22;48397;53.016;-2.260;2023-03-19T07:36:40;6.60;99.90
44671;DHT22;48397;53.016;-2.260;2023-03-19T07:39:10;6.70;99.90
44671;DHT22;48397;53.016;-2.260;2023-03-19T07:41:39;6.80;99.90
44671;DHT22;48397;53.016;-2.260;2023-03-19T07:44:10;6.80;99.90
44671;DHT22;48397;53.016;-2.260;2023-03-19T07:46:38;6.90;99.90
44671;DHT22;48397;53.016;-2.260;2023-03-19T07:49:06;7.00;99.90
44671;DHT22;48397;53.016;-2.260;2023-03-19T07:51:34;7.00;99.90
44671;DHT22;48397;53.016;-2.260;2023-03-19T07:54:01;7.10;99.90
44671;DHT22;48397;53.016;-2.260;2023-03-19T07:56:31;7.30;99.90
44671;DHT22;48397;53.016;-2.260;2023-03-19T07:58:59;7.30;99.90
44671;DHT22;48397;53.016;-2.260;2023-03-19T08:01:27;7.30;99.90
44671;DHT22;48397;53.016;-2.260;2023-03-19T08:03:56;7.40;99.90
44671;DHT22;48397;53.016;-2.260;2023-03-19T08:06:23;7.30;99.90
44671;DHT22;48397;53.016;-2.260;2023-03-19T08:08:51;7.40;99.90
44671;DHT22;48397;53.016;-2.260;2023-03-19T08:11:21;7.40;99.90
44671;DHT22;48397;53.016;-2.260;2023-03-19T08:13:50;7.40;99.90
44671;DHT22;48397;53.016;-2.260;2023-03-19T08:16:19;7.40;99.90
44671;DHT22;48397;53.016;-2.260;2023-03-19T08:18:47;7.50;99.90
44671;DHT22;48397;53.016;-2.260;2023-03-19T08:23:51;7.50;99.90
44671;DHT22;48397;53.016;-2.260;2023-03-19T08:26:20;7.50;99.90
44671;DHT22;48397;53.016;-2.260;2023-03-19T08:28:49;7.50;99.90
44671;DHT22;48397;53.016;-2.260;2023-03-19T08:31:17;7.50;99.90
44671;DHT22;48397;53.016;-2.260;2023-03-19T08:33:45;7.60;99.90
44671;DHT22;48397;53.016;-2.260;2023-03-19T08:36:14;7.50;99.90
44671;DHT22;48397;53.016;-2.260;2023-03-19T08:38:42;7.50;99.90
44671;DHT22;48397;53.016;-2.260;2023-03-19T08:41:10;7.50;99.90
44671;DHT22;48397;53.016;-2.260;2023-03-19T08:43:37;7.50;99.90
44671;DHT22;48397;53.016;-2.260;2023-03-19T08:46:05;7.60;99.90
44671;DHT22;48397;53.016;-2.260;2023-03-19T08:48:33;7.60;99.90
44671;DHT22;48397;53.016;-2.260;2023-03-19T08:51:02;7.60;99.90
44671;DHT22;48397;53.016;-2.260;2023-03-19T08:53:31;7.60;99.90
44671;DHT22;48397;53.016;-2.260;2023-03-19T08:56:01;7.70;99.90
44671;DHT22;48397;53.016;-2.260;2023-03-19T08:58:31;7.70;99.90
44671;DHT22;48397;53.016;-2.260;2023-03-19T09:01:07;6.40;99.90
44671;DHT22;48397;53.016;-2.260;2023-03-19T09:03:38;7.70;99.90
44671;DHT22;48397;53.016;-2.260;2023-03-19T09:06:08;7.80;99.90
44671;DHT22;48397;53.016;-2.260;2023-03-19T09:08:39;7.80;99.90
44671;DHT22;48397;53.016;-2.260;2023-03-19T09:11:09;7.90;99.90
44671;DHT22;48397;53.016;-2.260;2023-03-19T09:16:07;7.90;99.90
44671;DHT22;48397;53.016;-2.260;2023-03-19T09:18:36;7.90;99.90
44671;DHT22;48397;53.016;-2.260;2023-03-19T09:21:04;8.00;99.90
44671;DHT22;48397;53.016;-2.260;2023-03-19T09:26:01;8.20;99.90
44671;DHT22;48397;53.016;-2.260;2023-03-19T09:28:28;8.20;99.90
44671;DHT22;48397;53.016;-2.260;2023-03-19T09:30:56;8.20;99.90
44671;DHT22;48397;53.016;-2.260;2023-03-19T09:33:24;8.20;99.90
44671;DHT22;48397;53.016;-2.260;2023-03-19T09:35:52;8.20;99.90
44671;DHT22;48397;53.016;-2.260;2023-03-19T09:38:21;8.10;99.90
44671;DHT22;48397;53.016;-2.260;2023-03-19T09:41:12;8.30;99.90
44671;DHT22;48397;53.016;-2.260;2023-03-19T09:44:03;8.30;99.90
44671;DHT22;48397;53.016;-2.260;2023-03-19T09:46:47;8.30;99.90
44671;DHT22;48397;53.016;-2.260;2023-03-19T09:49:20;8.40;99.90
44671;DHT22;48397;53.016;-2.260;2023-03-19T09:51:55;8.40;99.90
44671;DHT22;48397;53.016;-2.260;2023-03-19T09:54:33;8.50;99.90
44671;DHT22;48397;53.016;-2.260;2023-03-19T09:57:03;8.50;99.90
44671;DHT22;48397;53.016;-2.260;2023-03-19T09:59:31;8.50;99.90
44671;DHT22;48397;53.016;-2.260;2023-03-19T10:05:24;10.40;99.90
44671;DHT22;48397;53.016;-2.260;2023-03-19T10:11:02;8.50;99.90
44671;DHT22;48397;53.016;-2.260;2023-03-19T10:13:55;8.50;99.90
44671;DHT22;48397;53.016;-2.260;2023-03-19T10:16:26;8.50;99.90
44671;DHT22;48397;53.016;-2.260;2023-03-19T10:18:57;8.30;99.90
44671;DHT22;48397;53.016;-2.260;2023-03-19T10:21:34;8.40;99.90
44671;DHT22;48397;53.016;-2.260;2023-03-19T10:24:17;8.40;99.90
44671;DHT22;48397;53.016;-2.260;2023-03-19T10:26:49;8.40;99.90
44671;DHT22;48397;53.016;-2.260;2023-03-19T10:29:23;8.40;99.90
44671;DHT22;48397;53.016;-2.260;2023-03-19T10:34:31;8.50;99.90
44671;DHT22;48397;53.016;-2.260;2023-03-19T10:37:05;8.50;99.90
44671;DHT22;48397;53.016;-2.260;2023-03-19T10:39:43;8.60;99.90
44671;DHT22;48397;53.016;-2.260;2023-03-19T10:47:16;8.40;99.90
44671;DHT22;48397;53.016;-2.260;2023-03-19T10:49:45;8.40;99.90
44671;DHT22;48397;53.016;-2.260;2023-03-19T10:52:32;8.40;99.90
44671;DHT22;48397;53.016;-2.260;2023-03-19T10:55:24;8.60;99.90
44671;DHT22;48397;53.016;-2.260;2023-03-19T10:58:00;8.30;99.90
44671;DHT22;48397;53.016;-2.260;2023-03-19T11:00:30;8.30;99.90
44671;DHT22;48397;53.016;-2.260;2023-03-19T11:03:01;8.50;99.90
44671;DHT22;48397;53.016;-2.260;2023-03-19T11:05:33;8.50;99.90
44671;DHT22;48397;53.016;-2.260;2023-03-19T11:08:17;8.60;99.90
44671;DHT22;48397;53.016;-2.260;2023-03-19T11:11:01;8.80;99.90
44671;DHT22;48397;53.016;-2.260;2023-03-19T11:13:29;8.80;99.90
44671;DHT22;48397;53.016;-2.260;2023-03-19T11:16:00;8.90;99.90
44671;DHT22;48397;53.016;-2.260;2023-03-19T11:18:34;8.90;99.90
44671;DHT22;48397;53.016;-2.260;2023-03-19T11:21:29;8.90;99.90
44671;DHT22;48397;53.016;-2.260;2023-03-19T11:24:02;9.00;99.90
44671;DHT22;48397;53.016;-2.260;2023-03-19T11:26:30;9.00;99.90
44671;DHT22;48397;53.016;-2.260;2023-03-19T11:29:02;9.10;99.90
44671;DHT22;48397;53.016;-2.260;2023-03-19T11:31:53;9.30;99.90
44671;DHT22;48397;53.016;-2.260;2023-03-19T11:50:59;9.90;99.90
44671;DHT22;48397;53.016;-2.260;2023-03-19T11:53:35;9.90;99.90
44671;DHT22;48397;53.016;-2.260;2023-03-19T12:09:58;10.50;99.90
44671;DHT22;48397;53.016;-2.260;2023-03-19T12:35:32;10.30;99.90
44671;DHT22;48397;53.016;-2.260;2023-03-19T12:38:22;10.30;99.90
44671;DHT22;48397;53.016;-2.260;2023-03-19T12:40:59;10.30;99.90
44671;DHT22;48397;53.016;-2.260;2023-03-19T12:43:45;10.40;99.90
44671;DHT22;48397;53.016;-2.260;2023-03-19T12:46:22;10.40;99.90
44671;DHT22;48397;53.016;-2.260;2023-03-19T12:49:06;10.40;99.90
44671;DHT22;48397;53.016;-2.260;2023-03-19T12:51:39;10.60;99.90
44671;DHT22;48397;53.016;-2.260;2023-03-19T12:54:37;10.80;99.90
44671;DHT22;48397;53.016;-2.260;2023-03-19T13:05:46;11.00;99.90
44671;DHT22;48397;53.016;-2.260;2023-03-19T13:08:31;11.00;99.90
44671;DHT22;48397;53.016;-2.260;2023-03-19T13:11:04;11.00;99.90
44671;DHT22;48397;53.016;-2.260;2023-03-19T13:22:09;11.00;99.90
44671;DHT22;48397;53.016;-2.260;2023-03-19T13:24:39;11.10;99.90
44671;DHT22;48397;53.016;-2.260;2023-03-19T13:27:20;11.10;99.90
44671;DHT22;48397;53.016;-2.260;2023-03-19T13:30:28;11.10;99.90
44671;DHT22;48397;53.016;-2.260;2023-03-19T13:33:01;11.10;99.90
44671;DHT22;48397;53.016;-2.260;2023-03-19T13:35:39;11.20;99.90
44671;DHT22;48397;53.016;-2.260;2023-03-19T13:46:57;11.20;99.90
44671;DHT22;48397;53.016;-2.260;2023-03-19T13:51:48;11.30;99.90
44671;DHT22;48397;53.016;-2.260;2023-03-19T13:54:31;11.40;99.90
44671;DHT22;48397;53.016;-2.260;2023-03-19T13:59:29;11.40;99.90
44671;DHT22;48397;53.016;-2.260;2023-03-19T14:01:58;11.70;99.90
44671;DHT22;48397;53.016;-2.260;2023-03-19T14:04:29;11.70;99.90
44671;DHT22;48397;53.016;-2.260;2023-03-19T14:07:09;11.80;99.90
44671;DHT22;48397;53.016;-2.260;2023-03-19T14:09:41;11.90;99.90
44671;DHT22;48397;53.016;-2.260;2023-03-19T14:14:54;11.90;99.90
44671;DHT22;48397;53.016;-2.260;2023-03-19T14:17:35;12.10;99.90
44671;DHT22;48397;53.016;-2.260;2023-03-19T14:22:52;12.60;99.90
44671;DHT22;48397;53.016;-2.260;2023-03-19T14:25:26;12.60;99.90
44671;DHT22;48397;53.016;-2.260;2023-03-19T14:27:59;12.60;99.90
44671;DHT22;48397;53.016;-2.260;2023-03-19T14:30:48;12.50;99.90
44671;DHT22;48397;53.016;-2.260;2023-03-19T14:33:21;12.80;99.90
44671;DHT22;48397;53.016;-2.260;2023-03-19T14:35:52;12.80;99.90
44671;DHT22;48397;53.016;-2.260;2023-03-19T14:41:21;13.80;99.90
44671;DHT22;48397;53.016;-2.260;2023-03-19T14:44:30;13.90;99.90
44671;DHT22;48397;53.016;-2.260;2023-03-19T14:52:35;13.80;99.90
44671;DHT22;48397;53.016;-2.260;2023-03-19T14:55:10;13.70;99.90
44671;DHT22;48397;53.016;-2.260;2023-03-19T14:57:39;13.70;99.90
44671;DHT22;48397;53.016;-2.260;2023-03-19T15:00:13;13.70;99.90
44671;DHT22;48397;53.016;-2.260;2023-03-19T15:02:59;13.70;99.90
44671;DHT22;48397;53.016;-2.260;2023-03-19T15:05:30;13.40;99.90
44671;DHT22;48397;53.016;-2.260;2023-03-19T15:08:06;13.20;99.90
44671;DHT22;48397;53.016;-2.260;2023-03-19T15:19:11;12.60;99.90
44671;DHT22;48397;53.016;-2.260;2023-03-19T15:21:39;13.40;99.90
44671;DHT22;48397;53.016;-2.260;2023-03-19T15:24:13;12.70;99.90
44671;DHT22;48397;53.016;-2.260;2023-03-19T15:26:43;12.60;99.90
44671;DHT22;48397;53.016;-2.260;2023-03-19T15:29:11;12.50;99.90
44671;DHT22;48397;53.016;-2.260;2023-03-19T15:31:47;12.40;99.90
44671;DHT22;48397;53.016;-2.260;2023-03-19T15:34:30;12.20;99.90
44671;DHT22;48397;53.016;-2.260;2023-03-19T15:37:07;12.30;99.90
44671;DHT22;48397;53.016;-2.260;2023-03-19T15:39:42;12.30;99.90
44671;DHT22;48397;53.016;-2.260;2023-03-19T15:42:13;12.20;99.90
44671;DHT22;48397;53.016;-2.260;2023-03-19T15:44:47;12.10;99.90
44671;DHT22;48397;53.016;-2.260;2023-03-19T15:47:19;12.00;99.90
44671;DHT22;48397;53.016;-2.260;2023-03-19T15:49:55;12.00;99.90
44671;DHT22;48397;53.016;-2.260;2023-03-19T15:52:30;11.70;99.90
44671;DHT22;48397;53.016;-2.260;2023-03-19T15:55:00;11.60;99.90
44671;DHT22;48397;53.016;-2.260;2023-03-19T15:59:59;11.50;99.90
44671;DHT22;48397;53.016;-2.260;2023-03-19T16:02:29;11.30;99.90
44671;DHT22;48397;53.016;-2.260;2023-03-19T16:04:59;11.30;99.90
44671;DHT22;48397;53.016;-2.260;2023-03-19T16:07:52;11.30;99.90
44671;DHT22;48397;53.016;-2.260;2023-03-19T16:12:55;11.30;99.90
44671;DHT22;48397;53.016;-2.260;2023-03-19T16:15:42;11.30;99.90
44671;DHT22;48397;53.016;-2.260;2023-03-19T16:21:20;11.30;99.90
44671;DHT22;48397;53.016;-2.260;2023-03-19T16:27:18;11.20;99.90
44671;DHT22;48397;53.016;-2.260;2023-03-19T16:29:48;11.20;99.90
44671;DHT22;48397;53.016;-2.260;2023-03-19T16:32:26;11.10;99.90
44671;DHT22;48397;53.016;-2.260;2023-03-19T16:35:16;11.10;99.90
44671;DHT22;48397;53.016;-2.260;2023-03-19T16:37:46;11.00;99.90
44671;DHT22;48397;53.016;-2.260;2023-03-19T16:42:51;11.00;99.90
44671;DHT22;48397;53.016;-2.260;2023-03-19T16:45:30;11.00;99.90
44671;DHT22;48397;53.016;-2.260;2023-03-19T16:48:00;11.00;99.90
44671;DHT22;48397;53.016;-2.260;2023-03-19T16:53:02;11.00;99.90
44671;DHT22;48397;53.016;-2.260;2023-03-19T16:55:34;10.90;99.90
44671;DHT22;48397;53.016;-2.260;2023-03-19T16:58:06;10.90;99.90
44671;DHT22;48397;53.016;-2.260;2023-03-19T17:00:34;10.80;99.90
44671;DHT22;48397;53.016;-2.260;2023-03-19T17:03:02;10.80;99.90
44671;DHT22;48397;53.016;-2.260;2023-03-19T17:05:30;10.80;99.90
44671;DHT22;48397;53.016;-2.260;2023-03-19T17:07:57;10.80;99.90
44671;DHT22;48397;53.016;-2.260;2023-03-19T17:10:26;10.70;99.90
44671;DHT22;48397;53.016;-2.260;2023-03-19T17:12:55;10.60;99.90
44671;DHT22;48397;53.016;-2.260;2023-03-19T17:15:26;10.40;99.90
44671;DHT22;48397;53.016;-2.260;2023-03-19T17:17:54;10.20;99.90
44671;DHT22;48397;53.016;-2.260;2023-03-19T17:20:30;10.20;99.90
44671;DHT22;48397;53.016;-2.260;2023-03-19T17:22:59;9.90;99.90
44671;DHT22;48397;53.016;-2.260;2023-03-19T17:25:27;9.80;99.90
44671;DHT22;48397;53.016;-2.260;2023-03-19T17:27:54;9.70;99.90
44671;DHT22;48397;53.016;-2.260;2023-03-19T17:30:22;9.70;99.90
44671;DHT22;48397;53.016;-2.260;2023-03-19T17:35:20;9.50;99.90
44671;DHT22;48397;53.016;-2.260;2023-03-19T17:37:48;9.50;99.90
44671;DHT22;48397;53.016;-2.260;2023-03-19T17:40:22;9.40;99.90
44671;DHT22;48397;53.016;-2.260;2023-03-19T17:42:50;9.40;99.90
44671;DHT22;48397;53.016;-2.260;2023-03-19T17:45:20;9.40;99.90
44671;DHT22;48397;53.016;-2.260;2023-03-19T17:47:50;9.30;99.90
44671;DHT22;48397;53.016;-2.260;2023-03-19T17:50:22;9.30;99.90
44671;DHT22;48397;53.016;-2.260;2023-03-19T17:55:24;9.30;99.90
44671;DHT22;48397;53.016;-2.260;2023-03-19T17:57:52;9.30;99.90
44671;DHT22;48397;53.016;-2.260;2023-03-19T18:00:22;9.20;99.90
44671;DHT22;48397;53.016;-2.260;2023-03-19T18:02:52;9.20;99.90
44671;DHT22;48397;53.016;-2.260;2023-03-19T18:05:23;9.10;99.90
44671;DHT22;48397;53.016;-2.260;2023-03-19T18:07:54;9.10;99.90
44671;DHT22;48397;53.016;-2.260;2023-03-19T18:10:24;8.90;99.90
44671;DHT22;48397;53.016;-2.260;2023-03-19T18:12:56;8.90;99.90
44671;DHT22;48397;53.016;-2.260;2023-03-19T18:15:27;8.80;99.90
44671;DHT22;48397;53.016;-2.260;2023-03-19T18:17:58;8.70;99.90
44671;DHT22;48397;53.016;-2.260;2023-03-19T18:20:31;8.70;99.90
44671;DHT22;48397;53.016;-2.260;2023-03-19T18:23:00;8.60;99.90
44671;DHT22;48397;53.016;-2.260;2023-03-19T18:25:28;7.60;99.90
44671;DHT22;48397;53.016;-2.260;2023-03-19T18:27:58;8.50;99.90
44671;DHT22;48397;53.016;-2.260;2023-03-19T18:30:29;8.40;99.90
44671;DHT22;48397;53.016;-2.260;2023-03-19T18:33:00;8.40;99.90
44671;DHT22;48397;53.016;-2.260;2023-03-19T18:35:31;8.40;99.90
44671;DHT22;48397;53.016;-2.260;2023-03-19T18:40:29;8.40;99.90
44671;DHT22;48397;53.016;-2.260;2023-03-19T18:43:00;8.40;99.90
44671;DHT22;48397;53.016;-2.260;2023-03-19T18:45:28;8.30;99.90
44671;DHT22;48397;53.016;-2.260;2023-03-19T18:47:57;8.30;99.90
44671;DHT22;48397;53.016;-2.260;2023-03-19T18:50:28;8.30;99.90
44671;DHT22;48397;53.016;-2.260;2023-03-19T18:52:56;8.30;99.90
44671;DHT22;48397;53.016;-2.260;2023-03-19T18:55:28;8.30;99.90
44671;DHT22;48397;53.016;-2.260;2023-03-19T18:57:58;8.30;99.90
44671;DHT22;48397;53.016;-2.260;2023-03-19T19:00:29;8.30;99.90
44671;DHT22;48397;53.016;-2.260;2023-03-19T19:02:59;8.30;99.90
44671;DHT22;48397;53.016;-2.260;2023-03-19T19:05:29;8.30;99.90
44671;DHT22;48397;53.016;-2.260;2023-03-19T19:08:02;8.70;99.90